Time;durP1;ratioP1;P1;durP2;ratioP2;P2;SDS_P1;SDS_P2;PMS_P1;PMS_P2;Temp;Humidity;BMP_temperature;BMP_pressure;BME280_temperature;BME280_humidity;BME280_pressure;Samples;Min_cycle;Max_cycle;Signal;HPM_P1;HPM_P2
2023/08/16 00:00:44;;;;;;;6.32;4.43;;;;;;;19.71;100.00;98504.25;2577214;28;20049;-92
2023/08/16 00:02:19;;;;;;;5.55;4.38;;;;;;;19.70;100.00;98508.69;2588283;28;20061;-92
2023/08/16 00:03:36;;;;;;;4.20;3.80;;;;;;;19.63;100.00;98507.41;2577816;28;20058;-93
2023/08/16 00:04:51;;;;;;;8.35;4.03;;;;;;;19.68;100.00;98502.63;2566457;28;20478;-92
2023/08/16 00:06:11;;;;;;;6.07;4.00;;;;;;;19.44;100.00;98505.06;2565584;28;20129;-93
2023/08/16 00:07:27;;;;;;;4.40;4.00;;;;;;;19.37;100.00;98506.41;2584473;28;20045;-93
2023/08/16 00:08:43;;;;;;;6.38;4.45;;;;;;;19.44;100.00;98499.75;2588173;28;20042;-92
2023/08/16 00:09:58;;;;;;;6.88;4.75;;;;;;;19.37;100.00;98503.72;2588946;28;20056;-92
2023/08/16 00:11:14;;;;;;;5.20;4.18;;;;;;;19.27;100.00;98501.66;2591446;28;20485;-92
2023/08/16 00:12:30;;;;;;;7.32;4.13;;;;;;;19.46;100.00;98503.16;2577982;28;20105;-94
2023/08/16 00:13:45;;;;;;;6.20;4.43;;;;;;;19.53;100.00;98501.81;2571833;28;20133;-92
2023/08/16 00:15:01;;;;;;;7.32;4.75;;;;;;;19.59;100.00;98497.91;2582971;28;20513;-92
2023/08/16 00:16:17;;;;;;;5.30;4.10;;;;;;;19.63;100.00;98507.41;2587405;28;20391;-92
2023/08/16 00:17:32;;;;;;;5.60;4.07;;;;;;;19.64;100.00;98509.09;2577785;28;20050;-92
2023/08/16 00:18:48;;;;;;;6.55;4.35;;;;;;;19.50;100.00;98511.78;2583752;28;20108;-92
2023/08/16 00:20:04;;;;;;;7.07;4.28;;;;;;;19.10;100.00;98513.34;2592999;28;20127;-91
2023/08/16 00:21:20;;;;;;;9.27;4.30;;;;;;;19.18;100.00;98504.91;2592381;28;20041;-93
2023/08/16 00:22:36;;;;;;;10.63;4.25;;;;;;;19.26;100.00;98513.22;2592683;28;20560;-93
2023/08/16 00:23:52;;;;;;;6.15;4.40;;;;;;;19.25;100.00;98503.56;2593067;28;20068;-92
2023/08/16 00:25:08;;;;;;;5.90;4.38;;;;;;;19.05;100.00;98508.31;2593171;28;20064;-92
2023/08/16 00:26:23;;;;;;;6.13;4.35;;;;;;;19.10;100.00;98505.38;2577569;28;20418;-92
2023/08/16 00:27:41;;;;;;;6.35;3.95;;;;;;;19.24;100.00;98501.03;2571260;28;20042;-91
2023/08/16 00:28:57;;;;;;;7.45;4.78;;;;;;;19.29;100.00;98499.78;2571905;28;20654;-92
2023/08/16 00:30:13;;;;;;;4.93;4.38;;;;;;;19.31;100.00;98499.66;2583812;28;20054;-92
2023/08/16 00:31:28;;;;;;;5.97;4.35;;;;;;;19.32;100.00;98499.59;2592347;28;20553;-92
2023/08/16 00:32:44;;;;;;;6.70;4.10;;;;;;;19.19;100.00;98498.66;2593990;28;20046;-91
2023/08/16 00:34:00;;;;;;;6.60;4.57;;;;;;;19.13;100.00;98499.88;2592123;28;20413;-92
2023/08/16 00:35:15;;;;;;;5.63;4.28;;;;;;;18.99;100.00;98500.72;2587873;28;20045;-94
2023/08/16 00:36:31;;;;;;;8.40;4.68;;;;;;;19.02;100.00;98500.56;2589699;28;20593;-92
2023/08/16 00:37:47;;;;;;;6.65;4.60;;;;;;;19.02;100.00;98497.91;2577302;28;20144;-92
2023/08/16 00:39:03;;;;;;;4.65;4.15;;;;;;;19.04;100.00;98497.78;2583377;28;20049;-92
2023/08/16 00:40:20;;;;;;;4.68;4.10;;;;;;;18.95;100.00;98495.69;2567571;28;20688;-92
2023/08/16 00:41:35;;;;;;;5.47;4.43;;;;;;;18.89;100.00;98495.09;2571062;28;20054;-92
2023/08/16 00:42:51;;;;;;;5.75;4.57;;;;;;;18.84;100.00;98488.38;2577697;28;20050;-92
2023/08/16 00:44:07;;;;;;;5.30;4.28;;;;;;;18.86;100.00;98491.81;2571583;28;20049;-93
2023/08/16 00:45:22;;;;;;;7.90;4.55;;;;;;;18.83;100.00;98489.31;2571860;28;20054;-91
2023/08/16 00:46:38;;;;;;;6.60;4.85;;;;;;;18.92;100.00;98484.31;2582922;28;20041;-92
2023/08/16 00:47:54;;;;;;;5.88;4.15;;;;;;;18.81;100.00;98489.44;2577584;28;20407;-92
2023/08/16 00:49:10;;;;;;;5.40;4.43;;;;;;;18.92;100.00;98489.59;2583107;28;20060;-92
2023/08/16 00:50:26;;;;;;;5.68;4.38;;;;;;;19.03;100.00;98493.44;2577525;28;20112;-92
2023/08/16 00:51:43;;;;;;;8.45;4.38;;;;;;;18.87;100.00;98498.81;2570516;28;20062;-93
2023/08/16 00:53:00;;;;;;;6.78;4.65;;;;;;;18.52;100.00;98504.44;2571799;28;20589;-93
2023/08/16 00:54:16;;;;;;;6.57;4.60;;;;;;;18.50;100.00;98501.88;2570059;28;20157;-92
2023/08/16 00:55:33;;;;;;;6.32;4.45;;;;;;;18.45;100.00;98501.31;2561050;28;20062;-92
2023/08/16 00:56:48;;;;;;;8.80;4.65;;;;;;;18.67;100.00;98492.91;2574227;28;20050;-92
2023/08/16 00:58:04;;;;;;;8.57;4.70;;;;;;;18.82;100.00;98496.44;2574154;28;20050;-92
2023/08/16 00:59:21;;;;;;;5.53;4.43;;;;;;;18.76;100.00;98495.03;2583085;28;20131;-92
2023/08/16 01:00:37;;;;;;;7.38;4.63;;;;;;;18.83;100.00;98491.97;2577481;28;20050;-92
2023/08/16 01:01:53;;;;;;;7.60;4.80;;;;;;;18.96;100.00;98498.25;2571473;28;20050;-92
2023/08/16 01:03:09;;;;;;;6.53;4.55;;;;;;;18.89;100.00;98494.28;2583833;28;20049;-92
2023/08/16 01:04:24;;;;;;;5.40;4.40;;;;;;;18.94;100.00;98494.84;2593828;28;20079;-93
2023/08/16 01:05:40;;;;;;;5.20;4.70;;;;;;;18.97;100.00;98497.28;2591638;28;20132;-93
2023/08/16 01:06:58;;;;;;;5.35;4.30;;;;;;;18.95;100.00;98491.22;2592139;28;20042;-92
2023/08/16 01:08:14;;;;;;;6.30;4.47;;;;;;;18.94;100.00;98494.84;2590506;28;20137;-93
2023/08/16 01:09:30;;;;;;;5.32;4.45;;;;;;;18.94;100.00;98497.47;2577625;28;20081;-93
2023/08/16 01:11:18;;;;;;;5.97;4.95;;;;;;;18.84;100.00;98493.69;2583688;28;20056;-91
2023/08/16 01:12:41;;;;;;;8.13;4.63;;;;;;;18.77;100.00;98488.75;2573991;28;20050;-93
2023/08/16 01:13:59;;;;;;;5.95;4.57;;;;;;;18.77;100.00;98496.72;2590221;28;20034;-92
2023/08/16 01:15:24;;;;;;;5.57;4.97;;;;;;;18.72;100.00;98485.56;2593337;28;20651;-92
2023/08/16 01:16:42;;;;;;;5.13;4.63;;;;;;;18.59;100.00;98489.91;2577324;28;20050;-92
2023/08/16 01:17:59;;;;;;;6.40;4.72;;;;;;;18.48;100.00;98480.78;2571643;28;20070;-92
2023/08/16 01:19:27;;;;;;;6.10;4.80;;;;;;;18.53;100.00;98493.75;2581206;28;20125;-92
2023/08/16 01:20:45;;;;;;;5.60;4.82;;;;;;;18.53;100.00;98491.13;2577245;28;20058;-92
2023/08/16 01:22:14;;;;;;;5.55;4.53;;;;;;;18.32;100.00;98483.47;2581792;28;20858;-92
2023/08/16 01:23:43;;;;;;;5.97;4.95;;;;;;;18.21;100.00;98486.78;2579644;28;20069;-93
2023/08/16 01:25:26;;;;;;;7.63;4.38;;;;;;;18.29;100.00;98485.44;2573412;28;20051;-92
2023/08/16 01:26:42;;;;;;;6.03;3.92;;;;;;;18.14;100.00;98481.94;2571821;28;20076;-92
2023/08/16 01:27:59;;;;;;;7.10;5.05;;;;;;;18.04;100.00;98482.47;2580519;28;20092;-92
2023/08/16 01:29:16;;;;;;;10.85;5.57;;;;;;;18.26;100.00;98478.56;2567514;28;20054;-92
2023/08/16 01:30:33;;;;;;;7.18;4.65;;;;;;;18.28;100.00;98481.09;2574627;28;20081;-93
2023/08/16 01:31:48;;;;;;;5.80;4.80;;;;;;;18.35;100.00;98487.75;2586443;28;20573;-92
2023/08/16 01:33:07;;;;;;;6.07;4.80;;;;;;;18.30;100.00;98476.56;2593731;28;20037;-92
2023/08/16 01:34:24;;;;;;;8.20;4.88;;;;;;;18.54;100.00;98484.88;2594439;28;20088;-92
2023/08/16 01:35:40;;;;;;;6.38;5.15;;;;;;;18.51;100.00;98478.88;2592656;28;20080;-92
2023/08/16 01:36:56;;;;;;;6.47;5.10;;;;;;;18.64;100.00;98477.19;2594104;28;20081;-93
2023/08/16 01:38:13;;;;;;;10.23;5.35;;;;;;;18.71;100.00;98481.16;2592405;28;20134;-92
2023/08/16 01:39:29;;;;;;;5.93;4.82;;;;;;;18.69;100.00;98477.75;2593056;28;20053;-92
2023/08/16 01:41:01;;;;;;;7.60;4.95;;;;;;;18.51;100.00;98484.19;2577435;28;20517;-93
2023/08/16 01:42:17;;;;;;;5.75;4.93;;;;;;;18.57;100.00;98483.81;2581136;28;20143;-92
2023/08/16 01:43:34;;;;;;;7.85;5.30;;;;;;;18.54;100.00;98487.50;2587711;28;20045;-92
2023/08/16 01:44:51;;;;;;;5.75;4.63;;;;;;;18.58;100.00;98483.72;2577295;28;20046;-92
2023/08/16 01:46:08;;;;;;;5.85;4.70;;;;;;;18.54;100.00;98486.66;2582935;28;20545;-93
2023/08/16 01:47:25;;;;;;;6.25;4.75;;;;;;;18.55;100.00;98491.00;2591529;28;20046;-93
2023/08/16 01:48:42;;;;;;;5.35;4.75;;;;;;;18.36;100.00;98489.47;2593626;28;20103;-92
2023/08/16 01:49:59;;;;;;;7.32;5.22;;;;;;;18.49;100.00;98494.88;2592039;28;20049;-93
2023/08/16 01:51:16;;;;;;;7.25;5.18;;;;;;;18.35;100.00;98493.91;2592510;28;20045;-92
2023/08/16 01:52:33;;;;;;;7.18;5.07;;;;;;;18.10;100.00;98493.66;2592823;28;20109;-93
2023/08/16 01:53:53;;;;;;;7.72;5.13;;;;;;;18.14;100.00;98489.88;2584306;28;20080;-92
2023/08/16 01:55:08;;;;;;;6.55;5.15;;;;;;;18.25;100.00;98487.47;2591261;28;20453;-93
2023/08/16 01:56:24;;;;;;;7.70;5.00;;;;;;;18.23;100.00;98489.34;2589611;28;20126;-93
2023/08/16 01:57:40;;;;;;;6.35;5.70;;;;;;;18.30;100.00;98490.69;2574549;28;20042;-91
2023/08/16 01:58:55;;;;;;;7.00;5.32;;;;;;;18.40;100.00;98490.97;2582104;28;20482;-91
2023/08/16 02:00:12;;;;;;;6.95;5.20;;;;;;;18.36;100.00;98481.50;2587489;28;20060;-92
2023/08/16 02:01:28;;;;;;;7.35;5.38;;;;;;;18.48;100.00;98482.56;2594544;28;20038;-92
2023/08/16 02:02:44;;;;;;;8.48;5.38;;;;;;;18.52;100.00;98481.47;2594655;28;20058;-92
2023/08/16 02:03:59;;;;;;;5.97;5.30;;;;;;;18.60;100.00;98481.81;2594174;28;20042;-92
2023/08/16 02:05:15;;;;;;;6.97;5.82;;;;;;;18.64;100.00;98487.81;2578958;28;20057;-92
2023/08/16 02:06:30;;;;;;;5.80;5.20;;;;;;;18.60;100.00;98487.13;2571986;28;20042;-93
2023/08/16 02:07:46;;;;;;;7.25;5.25;;;;;;;18.65;100.00;98484.22;2583429;28;20045;-92
2023/08/16 02:09:02;;;;;;;6.15;5.40;;;;;;;18.68;100.00;98493.78;2594115;28;20682;-92
2023/08/16 02:10:19;;;;;;;6.65;5.47;;;;;;;18.59;100.00;98496.03;2594411;28;20429;-91
2023/08/16 02:11:34;;;;;;;5.95;4.90;;;;;;;18.56;100.00;98495.34;2579025;28;20078;-92
2023/08/16 02:12:50;;;;;;;7.00;5.60;;;;;;;18.62;100.00;98497.66;2574112;28;20053;-93
2023/08/16 02:14:06;;;;;;;6.32;5.22;;;;;;;18.67;100.00;98492.91;2580642;28;20046;-92
2023/08/16 02:15:21;;;;;;;7.10;5.00;;;;;;;18.63;100.00;98497.53;2584565;28;20056;-93
2023/08/16 02:16:37;;;;;;;10.18;5.00;;;;;;;18.60;100.00;98503.03;2592516;28;20045;-91
2023/08/16 02:17:52;;;;;;;5.32;4.72;;;;;;;18.58;100.00;98498.78;2593478;28;20061;-93
2023/08/16 02:19:08;;;;;;;6.60;4.63;;;;;;;18.59;100.00;98504.00;2592046;28;20052;-92
2023/08/16 02:20:24;;;;;;;5.45;4.38;;;;;;;18.58;100.00;98509.41;2578928;28;20129;-92
2023/08/16 02:21:39;;;;;;;6.57;4.85;;;;;;;18.59;100.00;98511.94;2585536;28;20067;-93
2023/08/16 02:22:55;;;;;;;8.02;5.10;;;;;;;18.53;100.00;98501.72;2594790;28;20489;-92
2023/08/16 02:24:11;;;;;;;6.20;5.18;;;;;;;18.53;100.00;98506.16;2592353;28;20512;-92
2023/08/16 02:25:27;;;;;;;7.72;5.13;;;;;;;18.57;100.00;98503.22;2584870;28;20054;-93
2023/08/16 02:26:43;;;;;;;6.78;5.05;;;;;;;18.56;100.00;98504.19;2579225;28;20685;-92
2023/08/16 02:27:59;;;;;;;6.50;5.13;;;;;;;18.30;100.00;98498.63;2592265;28;20076;-92
2023/08/16 02:29:14;;;;;;;5.80;4.65;;;;;;;18.11;100.00;98504.16;2601829;28;20052;-92
2023/08/16 02:30:30;;;;;;;6.93;4.68;;;;;;;17.97;100.00;98501.41;2587952;28;20050;-93
2023/08/16 02:31:45;;;;;;;5.80;5.20;;;;;;;18.01;100.00;98500.28;2582232;28;20042;-92
2023/08/16 02:33:01;;;;;;;5.60;4.80;;;;;;;18.13;100.00;98496.97;2591366;28;20093;-92
2023/08/16 02:34:17;;;;;;;5.30;4.50;;;;;;;18.18;100.00;98502.00;2597344;28;20042;-92
2023/08/16 02:35:32;;;;;;;7.18;4.78;;;;;;;18.13;100.00;98498.78;2579270;28;20058;-93
2023/08/16 02:36:48;;;;;;;6.68;5.32;;;;;;;18.09;100.00;98497.22;2573209;28;20498;-92
2023/08/16 02:38:04;;;;;;;6.60;4.90;;;;;;;17.75;100.00;98502.66;2579137;28;20050;-93
2023/08/16 02:39:20;;;;;;;6.63;4.90;;;;;;;17.52;100.00;98499.50;2574275;28;20051;-92
2023/08/16 02:40:36;;;;;;;7.55;4.97;;;;;;;17.79;100.00;98499.72;2572882;28;20042;-92
2023/08/16 02:41:53;;;;;;;6.15;5.07;;;;;;;17.81;100.00;98497.00;2573574;28;20054;-92
2023/08/16 02:43:09;;;;;;;11.07;5.60;;;;;;;17.81;100.00;98501.44;2585439;28;20657;-92
2023/08/16 02:44:25;;;;;;;7.05;5.60;;;;;;;17.86;100.00;98504.69;2594478;28;20169;-92
2023/08/16 02:45:41;;;;;;;8.52;5.80;;;;;;;17.88;100.00;98505.44;2593449;28;20050;-92
2023/08/16 02:46:56;;;;;;;7.25;5.43;;;;;;;17.84;100.00;98503.91;2595766;28;20045;-92
2023/08/16 02:48:12;;;;;;;9.20;5.30;;;;;;;17.87;100.00;98503.75;2594340;28;20052;-92
2023/08/16 02:49:27;;;;;;;7.88;5.93;;;;;;;17.90;100.00;98504.44;2594576;28;20045;-91
2023/08/16 02:50:44;;;;;;;10.20;6.07;;;;;;;18.04;100.00;98508.09;2579172;28;20105;-92
2023/08/16 02:52:00;;;;;;;7.60;5.30;;;;;;;17.97;100.00;98510.22;2584063;28;20050;-92
2023/08/16 02:53:16;;;;;;;7.97;5.82;;;;;;;18.19;100.00;98507.22;2588759;28;20061;-91
2023/08/16 02:54:31;;;;;;;6.72;5.50;;;;;;;18.28;100.00;98505.81;2578714;28;20050;-93
2023/08/16 02:55:47;;;;;;;9.13;6.15;;;;;;;18.31;100.00;98507.44;2584159;28;20049;-92
2023/08/16 02:57:03;;;;;;;6.68;5.82;;;;;;;18.34;100.00;98512.56;2593020;28;20209;-92
2023/08/16 02:58:18;;;;;;;6.53;5.78;;;;;;;18.24;100.00;98517.56;2578659;28;20109;-92
2023/08/16 02:59:47;;;;;;;6.13;5.53;;;;;;;18.36;100.00;98518.63;2584433;28;20464;-92
2023/08/16 03:01:03;;;;;;;6.82;5.15;;;;;;;18.47;100.00;98516.19;2584210;28;20073;-92
2023/08/16 03:02:18;;;;;;;7.22;5.53;;;;;;;18.48;100.00;98514.38;2587523;28;20057;-92
2023/08/16 03:03:34;;;;;;;7.70;5.65;;;;;;;18.53;100.00;98514.09;2578625;28;20057;-92
2023/08/16 03:04:50;;;;;;;8.20;5.38;;;;;;;18.48;100.00;98512.59;2572774;28;20060;-93
2023/08/16 03:06:06;;;;;;;6.88;5.50;;;;;;;18.30;100.00;98511.88;2580230;28;20050;-92
2023/08/16 03:07:21;;;;;;;7.18;5.32;;;;;;;18.13;100.00;98510.22;2578656;28;20080;-93
2023/08/16 03:08:37;;;;;;;8.13;5.68;;;;;;;18.12;100.00;98507.66;2582541;28;20054;-92
2023/08/16 03:09:53;;;;;;;9.70;5.53;;;;;;;18.12;100.00;98516.44;2582180;28;20050;-92
2023/08/16 03:11:08;;;;;;;6.20;5.60;;;;;;;18.20;100.00;98521.31;2587895;28;20041;-92
2023/08/16 03:12:24;;;;;;;7.13;5.22;;;;;;;18.33;100.00;98524.09;2594682;28;20493;-92
2023/08/16 03:13:40;;;;;;;6.22;5.28;;;;;;;18.14;100.00;98519.84;2592631;28;20044;-92
2023/08/16 03:14:56;;;;;;;6.80;5.20;;;;;;;17.96;100.00;98526.19;2578664;28;20053;-92
2023/08/16 03:16:11;;;;;;;6.88;5.20;;;;;;;17.81;100.00;98526.13;2571536;28;20046;-92
2023/08/16 03:17:27;;;;;;;9.60;5.90;;;;;;;17.76;100.00;98523.72;2568379;28;20089;-91
2023/08/16 03:18:43;;;;;;;9.15;5.88;;;;;;;18.00;100.00;98523.28;2572493;28;20046;-92
2023/08/16 03:19:59;;;;;;;8.02;5.80;;;;;;;18.09;100.00;98524.59;2572277;28;20053;-92
2023/08/16 03:21:14;;;;;;;8.15;5.50;;;;;;;17.91;100.00;98524.66;2583335;28;20104;-92
2023/08/16 03:22:30;;;;;;;8.70;5.68;;;;;;;17.95;100.00;98522.72;2579210;28;20106;-91
2023/08/16 03:23:45;;;;;;;6.18;5.28;;;;;;;17.85;100.00;98527.66;2572861;28;20558;-92
2023/08/16 03:25:01;;;;;;;6.35;5.28;;;;;;;17.65;100.00;98527.00;2567973;28;20744;-92
2023/08/16 03:26:17;;;;;;;10.52;6.00;;;;;;;17.82;100.00;98532.28;2580680;28;20049;-93
2023/08/16 03:27:32;;;;;;;8.70;5.78;;;;;;;17.75;100.00;98534.44;2593000;28;20555;-92
2023/08/16 03:28:48;;;;;;;7.20;6.07;;;;;;;17.68;100.00;98528.63;2593020;28;20419;-91
2023/08/16 03:30:05;;;;;;;7.13;5.95;;;;;;;17.66;100.00;98533.13;2573923;28;20120;-93
2023/08/16 03:31:20;;;;;;;8.40;6.38;;;;;;;17.71;100.00;98532.88;2572473;28;20082;-92
2023/08/16 03:32:36;;;;;;;10.75;6.53;;;;;;;17.81;100.00;98535.84;2583272;28;20092;-92
2023/08/16 03:33:52;;;;;;;7.85;6.10;;;;;;;17.76;100.00;98539.63;2578712;28;20057;-93
2023/08/16 03:35:09;;;;;;;7.97;5.95;;;;;;;17.60;100.00;98539.66;2578612;28;20126;-92
2023/08/16 03:36:24;;;;;;;8.15;5.78;;;;;;;17.63;100.00;98534.16;2584736;28;20054;-93
2023/08/16 03:37:40;;;;;;;12.50;6.22;;;;;;;17.69;100.00;98534.75;2591668;28;20104;-91
2023/08/16 03:38:56;;;;;;;6.03;5.43;;;;;;;17.65;100.00;98532.28;2593146;28;20142;-92
2023/08/16 03:40:11;;;;;;;8.95;5.75;;;;;;;17.73;100.00;98538.94;2590940;28;20050;-91
2023/08/16 03:41:27;;;;;;;12.43;6.50;;;;;;;17.87;100.00;98531.06;2592128;28;20112;-91
2023/08/16 03:42:42;;;;;;;8.90;5.95;;;;;;;17.84;100.00;98535.69;2591276;28;20060;-91
2023/08/16 03:43:58;;;;;;;7.82;6.10;;;;;;;17.89;100.00;98536.28;2587659;28;20050;-92
2023/08/16 03:45:14;;;;;;;8.15;5.78;;;;;;;17.89;100.00;98544.22;2588861;28;20045;-91
2023/08/16 03:46:29;;;;;;;8.48;5.60;;;;;;;17.71;100.00;98540.81;2592977;28;20045;-90
2023/08/16 03:47:45;;;;;;;7.85;5.60;;;;;;;17.78;100.00;98544.84;2588214;28;20042;-92
2023/08/16 03:49:00;;;;;;;6.70;5.53;;;;;;;17.94;100.00;98547.47;2590783;28;20049;-91
2023/08/16 03:50:16;;;;;;;7.43;5.70;;;;;;;18.00;100.00;98546.25;2593372;28;20045;-91
2023/08/16 03:51:31;;;;;;;7.72;5.43;;;;;;;17.97;100.00;98538.50;2577893;28;20057;-91
2023/08/16 03:52:47;;;;;;;8.57;5.20;;;;;;;18.07;100.00;98547.66;2571938;28;20050;-91
2023/08/16 03:54:03;;;;;;;8.85;5.47;;;;;;;18.08;100.00;98549.38;2583066;28;20049;-92
2023/08/16 03:55:19;;;;;;;7.13;5.40;;;;;;;18.15;100.00;98541.94;2578021;28;20049;-91
2023/08/16 03:56:35;;;;;;;7.07;5.88;;;;;;;18.17;100.00;98548.00;2583284;28;20057;-91
2023/08/16 03:57:50;;;;;;;8.93;5.95;;;;;;;18.10;100.00;98550.13;2577867;28;20513;-91
2023/08/16 03:59:06;;;;;;;10.27;6.03;;;;;;;17.97;100.00;98552.59;2583749;28;20045;-91
2023/08/16 04:00:21;;;;;;;6.53;5.07;;;;;;;17.94;100.00;98550.13;2577336;28;20057;-91
2023/08/16 04:01:37;;;;;;;6.88;5.80;;;;;;;17.82;100.00;98548.19;2583024;28;20068;-91
2023/08/16 04:02:53;;;;;;;8.77;5.65;;;;;;;17.88;100.00;98556.63;2588772;28;20116;-91
2023/08/16 04:04:08;;;;;;;6.88;5.60;;;;;;;17.74;100.00;98551.22;2589046;28;20564;-92
2023/08/16 04:05:24;;;;;;;8.52;5.38;;;;;;;17.79;100.00;98551.84;2588697;28;20049;-91
2023/08/16 04:06:40;;;;;;;8.77;5.90;;;;;;;17.93;100.00;98548.41;2588824;28;20498;-91
2023/08/16 04:07:55;;;;;;;8.55;6.43;;;;;;;18.01;100.00;98551.50;2588839;28;20038;-93
2023/08/16 04:09:11;;;;;;;9.68;5.85;;;;;;;18.02;100.00;98549.66;2588837;28;20144;-92
2023/08/16 04:10:27;;;;;;;8.35;5.75;;;;;;;18.07;100.00;98551.16;2588784;28;20088;-92
2023/08/16 04:11:42;;;;;;;7.25;5.70;;;;;;;18.17;100.00;98553.28;2589161;28;20045;-91
2023/08/16 04:12:58;;;;;;;7.22;5.60;;;;;;;18.28;100.00;98553.53;2589065;28;20042;-91
2023/08/16 04:14:13;;;;;;;7.93;5.80;;;;;;;18.30;100.00;98550.75;2577861;28;20042;-91
2023/08/16 04:15:29;;;;;;;9.35;6.47;;;;;;;18.33;100.00;98554.09;2582248;28;20120;-93
2023/08/16 04:16:45;;;;;;;9.02;5.50;;;;;;;18.29;100.00;98557.88;2588128;28;20062;-92
2023/08/16 04:18:01;;;;;;;7.82;5.38;;;;;;;18.23;100.00;98560.91;2593650;28;20045;-92
2023/08/16 04:19:16;;;;;;;8.05;5.93;;;;;;;18.17;100.00;98550.63;2596158;28;20121;-92
2023/08/16 04:20:32;;;;;;;8.27;5.93;;;;;;;18.30;100.00;98553.41;2592510;28;20076;-92
2023/08/16 04:21:47;;;;;;;8.85;5.60;;;;;;;18.34;100.00;98555.81;2588573;28;20061;-91
2023/08/16 04:23:03;;;;;;;8.65;5.97;;;;;;;18.36;100.00;98558.38;2578159;28;20518;-91
2023/08/16 04:24:19;;;;;;;7.13;5.50;;;;;;;18.46;100.00;98561.34;2582175;28;20092;-92
2023/08/16 04:25:34;;;;;;;7.22;5.55;;;;;;;18.41;100.00;98552.81;2589106;28;20049;-92
2023/08/16 04:26:50;;;;;;;7.35;5.70;;;;;;;18.25;100.00;98553.72;2588086;28;20053;-93
2023/08/16 04:28:06;;;;;;;6.47;5.50;;;;;;;18.10;100.00;98552.78;2588385;28;20049;-91
2023/08/16 04:29:21;;;;;;;8.20;5.60;;;;;;;18.04;100.00;98550.50;2588727;28;20742;-92
2023/08/16 04:30:37;;;;;;;6.65;5.68;;;;;;;18.04;100.00;98551.34;2588549;28;20050;-92
2023/08/16 04:31:53;;;;;;;9.32;6.45;;;;;;;18.05;100.00;98553.03;2588598;28;20417;-91
2023/08/16 04:33:08;;;;;;;7.30;5.55;;;;;;;18.13;100.00;98546.47;2588962;28;20387;-92
2023/08/16 04:34:24;;;;;;;7.85;5.75;;;;;;;18.20;100.00;98546.03;2588103;28;20485;-91
2023/08/16 04:35:39;;;;;;;11.75;6.35;;;;;;;18.49;100.00;98548.75;2578004;28;20410;-91
2023/08/16 04:36:55;;;;;;;8.48;6.28;;;;;;;18.66;100.00;98552.19;2571943;28;20053;-92
2023/08/16 04:38:10;;;;;;;8.68;6.22;;;;;;;18.70;100.00;98556.38;2571777;28;20577;-91
2023/08/16 04:39:26;;;;;;;7.13;6.22;;;;;;;18.75;100.00;98559.63;2582158;28;20054;-91
2023/08/16 04:40:42;;;;;;;9.05;6.47;;;;;;;18.53;100.00;98553.88;2588320;28;20077;-91
2023/08/16 04:41:57;;;;;;;7.43;6.20;;;;;;;18.54;100.00;98551.16;2588677;28;20229;-92
2023/08/16 04:43:13;;;;;;;7.57;6.18;;;;;;;18.72;100.00;98554.50;2588282;28;20053;-90
2023/08/16 04:44:29;;;;;;;7.75;6.63;;;;;;;18.75;100.00;98562.28;2588910;28;20088;-91
2023/08/16 04:45:45;;;;;;;7.80;6.35;;;;;;;18.91;100.00;98561.34;2588076;28;20038;-92
2023/08/16 04:47:00;;;;;;;7.00;6.07;;;;;;;18.75;100.00;98567.56;2588177;28;20041;-92
2023/08/16 04:48:16;;;;;;;8.63;5.90;;;;;;;18.82;100.00;98559.25;2587763;28;20040;-91
2023/08/16 04:49:32;;;;;;;8.07;6.20;;;;;;;18.86;100.00;98566.91;2589219;28;20046;-92
2023/08/16 04:50:47;;;;;;;7.88;6.28;;;;;;;19.09;100.00;98564.72;2588703;28;20062;-92
2023/08/16 04:52:03;;;;;;;8.93;6.10;;;;;;;19.12;100.00;98567.19;2588357;28;20516;-92
2023/08/16 04:53:19;;;;;;;8.07;5.90;;;;;;;19.18;100.00;98569.44;2587976;28;20115;-92
2023/08/16 04:54:35;;;;;;;8.60;6.20;;;;;;;19.17;100.00;98564.25;2589154;28;20046;-92
2023/08/16 04:55:50;;;;;;;7.20;5.65;;;;;;;19.26;100.00;98573.44;2578050;28;20042;-92
2023/08/16 04:57:06;;;;;;;7.97;6.63;;;;;;;19.34;100.00;98574.66;2582032;28;20046;-91
2023/08/16 04:58:21;;;;;;;7.15;5.70;;;;;;;19.30;100.00;98575.81;2588120;28;20041;-92
2023/08/16 04:59:37;;;;;;;6.65;5.57;;;;;;;19.34;100.00;98587.06;2589200;28;20057;-93
2023/08/16 05:00:53;;;;;;;8.88;5.80;;;;;;;19.45;100.00;98578.47;2588790;28;20062;-91
2023/08/16 05:02:09;;;;;;;10.77;6.05;;;;;;;19.41;100.00;98585.75;2580255;28;21174;-92
2023/08/16 05:03:24;;;;;;;6.93;5.88;;;;;;;19.51;100.00;98587.84;2575764;28;20062;-92
2023/08/16 05:04:40;;;;;;;10.25;5.88;;;;;;;19.48;100.00;98583.56;2571505;28;20046;-91
2023/08/16 05:06:00;;;;;;;7.45;6.03;;;;;;;19.48;100.00;98584.41;2572035;28;20054;-93
2023/08/16 05:07:16;;;;;;;7.75;5.90;;;;;;;19.56;100.00;98581.31;2582781;28;20064;-92
2023/08/16 05:08:31;;;;;;;10.05;6.35;;;;;;;19.55;100.00;98590.19;2577826;28;20090;-91
2023/08/16 05:09:47;;;;;;;8.75;6.38;;;;;;;19.45;100.00;98589.91;2567796;28;20066;-92
2023/08/16 05:11:03;;;;;;;8.32;6.05;;;;;;;19.58;100.00;98590.03;2571728;28;20057;-92
2023/08/16 05:12:18;;;;;;;10.32;6.18;;;;;;;19.47;100.00;98585.34;2580367;28;20116;-92
2023/08/16 05:13:34;;;;;;;8.05;6.28;;;;;;;19.59;100.00;98593.50;2577893;28;20054;-92
2023/08/16 05:14:50;;;;;;;7.45;6.60;;;;;;;19.64;100.00;98595.88;2581893;28;20471;-92
2023/08/16 05:16:05;;;;;;;8.00;5.28;;;;;;;19.69;100.00;98602.59;2577479;28;20648;-92
2023/08/16 05:17:21;;;;;;;7.63;5.78;;;;;;;19.76;100.00;98597.75;2581404;28;20096;-92
2023/08/16 05:18:37;;;;;;;7.38;6.18;;;;;;;19.89;100.00;98601.34;2587458;28;20046;-92
2023/08/16 05:19:52;;;;;;;7.93;6.15;;;;;;;19.85;100.00;98596.31;2577285;28;20218;-92
2023/08/16 05:21:08;;;;;;;9.27;6.25;;;;;;;19.80;100.00;98598.44;2575817;28;20050;-92
2023/08/16 05:22:24;;;;;;;9.57;6.22;;;;;;;19.86;100.00;98598.91;2577223;28;20515;-92
2023/08/16 05:23:40;;;;;;;6.38;5.68;;;;;;;20.00;100.00;98598.03;2571525;28;20442;-91
2023/08/16 05:24:56;;;;;;;9.68;6.40;;;;;;;20.07;100.00;98597.66;2571193;28;20241;-91
2023/08/16 05:26:11;;;;;;;7.28;6.32;;;;;;;19.98;100.00;98596.44;2571690;28;20046;-92
2023/08/16 05:27:28;;;;;;;9.73;6.63;;;;;;;19.81;100.00;98600.13;2581780;28;20127;-91
2023/08/16 05:28:44;;;;;;;7.05;6.35;;;;;;;19.90;100.00;98608.38;2588742;28;20050;-91
2023/08/16 05:30:00;;;;;;;7.68;5.95;;;;;;;20.12;100.00;98601.72;2587942;28;20077;-91
2023/08/16 05:31:16;;;;;;;10.15;6.07;;;;;;;20.07;100.00;98603.78;2588471;28;20109;-90
2023/08/16 05:32:31;;;;;;;16.30;6.20;;;;;;;20.01;100.00;98606.84;2590078;28;20597;-91
2023/08/16 05:33:47;;;;;;;12.10;6.70;;;;;;;19.92;100.00;98603.00;2588774;28;20104;-91
2023/08/16 05:35:03;;;;;;;8.77;6.25;;;;;;;20.12;100.00;98600.84;2579606;28;20596;-92
2023/08/16 05:36:18;;;;;;;8.63;6.28;;;;;;;20.13;100.00;98603.41;2573423;28;20073;-92
2023/08/16 05:37:34;;;;;;;10.88;6.40;;;;;;;20.15;100.00;98604.16;2583195;28;20050;-92
2023/08/16 05:38:49;;;;;;;8.73;6.40;;;;;;;20.27;100.00;98604.31;2579384;28;20434;-91
2023/08/16 05:40:06;;;;;;;9.02;5.88;;;;;;;20.20;100.00;98608.31;2583854;28;20051;-91
2023/08/16 05:41:21;;;;;;;6.93;6.15;;;;;;;20.13;100.00;98606.06;2589929;28;20065;-91
2023/08/16 05:42:38;;;;;;;9.07;6.13;;;;;;;20.20;100.00;98616.28;2579641;28;20046;-91
2023/08/16 05:43:53;;;;;;;7.22;5.90;;;;;;;20.43;100.00;98607.66;2583429;28;20558;-91
2023/08/16 05:45:09;;;;;;;11.32;6.50;;;;;;;20.34;100.00;98608.25;2579455;28;20046;-91
2023/08/16 05:46:25;;;;;;;8.95;6.13;;;;;;;20.42;100.00;98610.41;2583724;28;20050;-92
2023/08/16 05:47:40;;;;;;;9.38;6.53;;;;;;;20.43;100.00;98615.66;2590031;28;20057;-91
2023/08/16 05:48:56;;;;;;;7.00;5.97;;;;;;;20.60;100.00;98613.66;2590061;28;20050;-91
2023/08/16 05:50:12;;;;;;;12.20;6.50;;;;;;;20.71;100.00;98608.47;2590490;28;20046;-92
2023/08/16 05:51:27;;;;;;;8.90;6.03;;;;;;;20.79;100.00;98612.41;2589997;28;20124;-92
2023/08/16 05:52:43;;;;;;;9.93;6.85;;;;;;;20.65;100.00;98608.88;2590609;28;20050;-91
2023/08/16 05:53:59;;;;;;;6.55;5.85;;;;;;;20.59;100.00;98609.31;2578950;28;20536;-92
2023/08/16 05:55:14;;;;;;;10.70;6.13;;;;;;;20.71;100.00;98611.13;2583808;28;20124;-91